Time,TemperatureF,DewpointF,PressureIn,WindDirection,WindDirectionDegrees,WindSpeedMPH,WindSpeedGustMPH,Humidity,HourlyPrecipIn,Conditions,Clouds,dailyrainin,SolarRadiationWatts/m^2,SoftwareType,DateUTC
2013-08-02 00:01:00,73.0,71.0,-100.00,SE,129,1.0,1.0,94,0.00,,,0.39,0.000000,,2013-08-02 04:01:00,
2013-08-02 00:02:00,73.0,71.0,-100.00,SE,129,1.0,1.0,94,0.00,,,0.39,0.000000,,2013-08-02 04:02:00,
2013-08-02 00:33:00,73.0,71.0,-100.00,SSE,162,1.0,4.0,94,0.00,,,0.39,0.000000,,2013-08-02 04:33:00,
2013-08-02 00:43:00,73.0,71.0,-100.00,SSE,162,1.0,4.0,94,0.00,,,0.39,0.000000,,2013-08-02 04:43:00,
2013-08-02 00:53:00,73.0,71.0,-100.00,SSE,162,1.0,4.0,94,0.00,,,0.39,0.000000,,2013-08-02 04:53:00,
2013-08-02 01:02:00,73.0,71.0,-100.00,SSE,162,1.0,4.0,94,0.00,,,0.39,0.000000,,2013-08-02 05:02:00,
2013-08-02 01:32:00,72.0,70.0,-100.00,NW,308,0.0,5.0,94,0.00,,,0.39,0.000000,,2013-08-02 05:32:00,
2013-08-02 01:43:00,72.0,70.0,-100.00,NW,308,0.0,5.0,94,0.00,,,0.39,0.000000,,2013-08-02 05:43:00,
2013-08-02 01:53:00,72.0,70.0,-100.00,NW,308,0.0,5.0,94,0.00,,,0.39,0.000000,,2013-08-02 05:53:00,
2013-08-02 02:02:00,72.0,70.0,-100.00,NW,308,0.0,5.0,94,0.00,,,0.39,0.000000,,2013-08-02 06:02:00,
2013-08-02 02:22:00,72.0,70.0,-100.00,NNW,343,1.0,2.0,94,0.00,,,0.39,0.000000,,2013-08-02 06:22:00,
2013-08-02 02:33:00,72.0,70.0,-100.00,NNW,343,1.0,2.0,94,0.00,,,0.39,0.000000,,2013-08-02 06:33:00,
2013-08-02 02:43:00,72.0,70.0,-100.00,NNW,343,1.0,2.0,94,0.00,,,0.39,0.000000,,2013-08-02 06:43:00,
2013-08-02 02:52:00,72.0,70.0,-100.00,NNW,343,1.0,2.0,94,0.00,,,0.39,0.000000,,2013-08-02 06:52:00,
2013-08-02 03:02:00,72.0,70.0,-100.00,NNW,343,1.0,2.0,94,0.00,,,0.39,0.000000,,2013-08-02 07:02:00,
2013-08-02 03:22:00,73.0,71.0,-100.00,SW,215,2.0,7.0,95,0.00,,,0.39,0.000000,,2013-08-02 07:22:00,
2013-08-02 03:33:00,73.0,71.0,-100.00,SW,215,2.0,7.0,95,0.00,,,0.39,0.000000,,2013-08-02 07:33:00,
2013-08-02 03:44:00,73.0,71.0,-100.00,SW,215,2.0,7.0,95,0.00,,,0.39,0.000000,,2013-08-02 07:44:00,
2013-08-02 03:53:00,73.0,71.0,-100.00,SW,215,2.0,7.0,95,0.00,,,0.39,0.000000,,2013-08-02 07:53:00,
2013-08-02 04:02:00,73.0,71.0,-100.00,SW,215,2.0,7.0,95,0.00,,,0.39,0.000000,,2013-08-02 08:02:00,
2013-08-02 04:22:00,72.0,70.0,-100.00,ENE,64,0.0,4.0,95,0.00,,,0.39,0.000000,,2013-08-02 08:22:00,
2013-08-02 04:33:00,72.0,70.0,-100.00,ENE,64,0.0,4.0,95,0.00,,,0.39,0.000000,,2013-08-02 08:33:00,
2013-08-02 04:43:00,72.0,70.0,-100.00,ENE,64,0.0,4.0,95,0.00,,,0.39,0.000000,,2013-08-02 08:43:00,
2013-08-02 04:54:00,72.0,70.0,-100.00,ENE,64,0.0,4.0,95,0.00,,,0.39,0.000000,,2013-08-02 08:54:00,
2013-08-02 05:02:00,72.0,70.0,-100.00,ENE,64,0.0,4.0,95,0.00,,,0.39,0.000000,,2013-08-02 09:02:00,
2013-08-02 05:23:00,71.0,69.0,-100.00,ENE,67,0.0,0.0,95,0.00,,,0.39,0.000000,,2013-08-02 09:23:00,
2013-08-02 05:33:00,71.0,69.0,-100.00,ENE,67,0.0,0.0,95,0.00,,,0.39,0.000000,,2013-08-02 09:33:00,
2013-08-02 05:44:00,71.0,69.0,-100.00,ENE,67,0.0,0.0,95,0.00,,,0.39,0.000000,,2013-08-02 09:44:00,
2013-08-02 05:53:00,71.0,69.0,-100.00,ENE,67,0.0,0.0,95,0.00,,,0.39,0.000000,,2013-08-02 09:53:00,
2013-08-02 06:03:00,71.0,69.0,-100.00,ENE,67,0.0,0.0,95,0.00,,,0.39,0.000000,,2013-08-02 10:03:00,
2013-08-02 06:33:00,71.0,69.0,-100.00,West,264,0.0,0.0,95,0.00,,,0.39,0.000000,,2013-08-02 10:33:00,
2013-08-02 06:43:00,71.0,69.0,-100.00,West,264,0.0,0.0,95,0.00,,,0.39,0.000000,,2013-08-02 10:43:00,
2013-08-02 06:52:00,71.0,69.0,-100.00,West,264,0.0,0.0,95,0.00,,,0.39,0.000000,,2013-08-02 10:52:00,
2013-08-02 07:02:00,71.0,69.0,-100.00,West,264,0.0,0.0,95,0.00,,,0.39,0.000000,,2013-08-02 11:02:00,
2013-08-02 07:33:00,71.0,69.0,-100.00,ENE,73,0.0,0.0,95,0.00,,,0.39,3.000000,,2013-08-02 11:33:00,
2013-08-02 07:43:00,71.0,69.0,-100.00,ENE,73,0.0,0.0,95,0.00,,,0.39,3.000000,,2013-08-02 11:43:00,
2013-08-02 07:52:00,71.0,69.0,-100.00,ENE,73,0.0,0.0,95,0.00,,,0.39,3.000000,,2013-08-02 11:52:00,
2013-08-02 08:02:00,71.0,69.0,-100.00,ENE,73,0.0,0.0,95,0.00,,,0.39,3.000000,,2013-08-02 12:02:00,
2013-08-02 08:33:00,75.0,73.0,-100.00,West,278,1.0,2.0,95,0.00,,,0.39,82.000000,,2013-08-02 12:33:00,
2013-08-02 09:03:00,75.0,73.0,-100.00,West,278,1.0,2.0,95,0.00,,,0.39,82.000000,,2013-08-02 13:03:00,
2013-08-02 09:33:00,81.0,75.0,-100.00,WSW,239,2.0,5.0,81,0.00,,,0.39,271.000000,,2013-08-02 13:33:00,
2013-08-02 09:43:00,81.0,75.0,-100.00,WSW,239,2.0,5.0,81,0.00,,,0.39,271.000000,,2013-08-02 13:43:00,
2013-08-02 09:52:00,81.0,75.0,-100.00,WSW,239,2.0,5.0,81,0.00,,,0.39,271.000000,,2013-08-02 13:52:00,
2013-08-02 10:02:00,81.0,75.0,-100.00,WSW,239,2.0,5.0,81,0.00,,,0.39,271.000000,,2013-08-02 14:02:00,
2013-08-02 10:32:00,85.0,76.0,-100.00,WSW,249,3.0,8.0,74,0.00,,,0.39,494.000000,,2013-08-02 14:32:00,
2013-08-02 10:43:00,85.0,76.0,-100.00,WSW,249,3.0,8.0,74,0.00,,,0.39,494.000000,,2013-08-02 14:43:00,
2013-08-02 10:53:00,85.0,76.0,-100.00,WSW,249,3.0,8.0,74,0.00,,,0.39,494.000000,,2013-08-02 14:53:00,
2013-08-02 11:03:00,85.0,76.0,-100.00,WSW,249,3.0,8.0,74,0.00,,,0.39,494.000000,,2013-08-02 15:03:00,
2013-08-02 11:22:00,85.0,74.0,-100.00,West,272,4.0,8.0,70,0.00,,,0.39,603.000000,,2013-08-02 15:22:00,
2013-08-02 11:32:00,85.0,74.0,-100.00,West,272,4.0,8.0,70,0.00,,,0.39,603.000000,,2013-08-02 15:32:00,
2013-08-02 11:43:00,85.0,74.0,-100.00,West,272,4.0,8.0,70,0.00,,,0.39,603.000000,,2013-08-02 15:43:00,
2013-08-02 11:53:00,85.0,74.0,-100.00,West,272,4.0,8.0,70,0.00,,,0.39,603.000000,,2013-08-02 15:53:00,
2013-08-02 12:02:00,85.0,74.0,-100.00,West,272,4.0,8.0,70,0.00,,,0.39,603.000000,,2013-08-02 16:02:00,
2013-08-02 12:32:00,89.0,75.0,-100.00,West,266,3.0,7.0,64,0.00,,,0.39,796.000000,,2013-08-02 16:32:00,
2013-08-02 12:43:00,89.0,75.0,-100.00,West,266,3.0,7.0,64,0.00,,,0.39,796.000000,,2013-08-02 16:43:00,
2013-08-02 12:53:00,89.0,75.0,-100.00,West,266,3.0,7.0,64,0.00,,,0.39,796.000000,,2013-08-02 16:53:00,
2013-08-02 13:02:00,89.0,75.0,-100.00,West,266,3.0,7.0,64,0.00,,,0.39,796.000000,,2013-08-02 17:02:00,
2013-08-02 13:35:00,90.0,75.0,-100.00,WSW,250,3.0,9.0,61,0.00,,,0.15,839.000000,,2013-08-02 17:35:00,
2013-08-02 13:43:00,90.0,75.0,-100.00,WSW,250,3.0,9.0,61,0.00,,,0.15,839.000000,,2013-08-02 17:43:00,
2013-08-02 13:52:00,90.0,75.0,-100.00,WSW,250,3.0,9.0,61,0.00,,,0.15,839.000000,,2013-08-02 17:52:00,
2013-08-02 14:02:00,90.0,75.0,-100.00,WSW,250,3.0,9.0,61,0.00,,,0.15,839.000000,,2013-08-02 18:02:00,
2013-08-02 14:32:00,91.0,73.0,-100.00,NW,304,3.0,7.0,56,0.00,,,0.15,920.000000,,2013-08-02 18:32:00,
2013-08-02 14:43:00,91.0,73.0,-100.00,NW,304,3.0,7.0,56,0.00,,,0.15,920.000000,,2013-08-02 18:43:00,
2013-08-02 14:52:00,91.0,73.0,-100.00,NW,304,3.0,7.0,56,0.00,,,0.15,920.000000,,2013-08-02 18:52:00,
2013-08-02 15:02:00,91.0,73.0,-100.00,NW,304,3.0,7.0,56,0.00,,,0.15,920.000000,,2013-08-02 19:02:00,
2013-08-02 15:33:00,93.0,75.0,-100.00,West,266,4.0,7.0,56,0.00,,,0.15,756.000000,,2013-08-02 19:33:00,
2013-08-02 15:43:00,93.0,75.0,-100.00,West,266,4.0,7.0,56,0.00,,,0.15,756.000000,,2013-08-02 19:43:00,
2013-08-02 15:52:00,93.0,75.0,-100.00,West,266,4.0,7.0,56,0.00,,,0.15,756.000000,,2013-08-02 19:52:00,
2013-08-02 16:02:00,93.0,75.0,-100.00,West,266,4.0,7.0,56,0.00,,,0.15,756.000000,,2013-08-02 20:02:00,
2013-08-02 16:33:00,91.0,75.0,-100.00,SE,140,4.0,9.0,60,0.00,,,0.00,690.000000,,2013-08-02 20:33:00,
2013-08-02 16:43:00,91.0,75.0,-100.00,SE,140,4.0,9.0,60,0.00,,,0.00,690.000000,,2013-08-02 20:43:00,
2013-08-02 16:52:00,91.0,75.0,-100.00,SE,140,4.0,9.0,60,0.00,,,0.00,690.000000,,2013-08-02 20:52:00,
2013-08-02 17:03:00,91.0,75.0,-100.00,SE,140,4.0,9.0,60,0.00,,,0.00,690.000000,,2013-08-02 21:03:00,
2013-08-02 17:33:00,90.0,74.0,-100.00,SE,125,4.0,11.0,59,0.00,,,0.00,695.000000,,2013-08-02 21:33:00,
2013-08-02 17:43:00,90.0,74.0,-100.00,SE,125,4.0,11.0,59,0.00,,,0.00,695.000000,,2013-08-02 21:43:00,
2013-08-02 17:53:00,90.0,74.0,-100.00,SE,125,4.0,11.0,59,0.00,,,0.00,695.000000,,2013-08-02 21:53:00,
2013-08-02 18:02:00,90.0,74.0,-100.00,SE,125,4.0,11.0,59,0.00,,,0.00,695.000000,,2013-08-02 22:02:00,
2013-08-02 18:33:00,87.0,73.0,-100.00,ESE,122,5.0,11.0,64,0.00,,,0.00,341.000000,,2013-08-02 22:33:00,
2013-08-02 18:43:00,87.0,73.0,-100.00,ESE,122,5.0,11.0,64,0.00,,,0.00,341.000000,,2013-08-02 22:43:00,
2013-08-02 18:52:00,87.0,73.0,-100.00,ESE,122,5.0,11.0,64,0.00,,,0.00,341.000000,,2013-08-02 22:52:00,
2013-08-02 19:02:00,87.0,73.0,-100.00,ESE,122,5.0,11.0,64,0.00,,,0.00,341.000000,,2013-08-02 23:02:00,
2013-08-02 19:22:00,84.0,70.0,-100.00,ESE,121,3.0,12.0,63,0.00,,,0.00,213.000000,,2013-08-02 23:22:00,
2013-08-02 19:32:00,84.0,70.0,-100.00,ESE,121,3.0,12.0,63,0.00,,,0.00,213.000000,,2013-08-02 23:32:00,
2013-08-02 19:44:00,84.0,70.0,-100.00,ESE,121,3.0,12.0,63,0.00,,,0.00,213.000000,,2013-08-02 23:44:00,
2013-08-02 19:53:00,84.0,70.0,-100.00,ESE,121,3.0,12.0,63,0.00,,,0.00,213.000000,,2013-08-02 23:53:00,
2013-08-02 20:02:00,84.0,70.0,-100.00,ESE,121,3.0,12.0,63,0.00,,,0.00,213.000000,,2013-08-03 00:02:00,
2013-08-02 20:22:00,83.0,71.0,-100.00,SE,124,4.0,11.0,68,0.00,,,0.00,119.000000,,2013-08-03 00:22:00,
2013-08-02 20:33:00,83.0,71.0,-100.00,SE,124,4.0,11.0,68,0.00,,,0.00,119.000000,,2013-08-03 00:33:00,
2013-08-02 20:43:00,83.0,71.0,-100.00,SE,124,4.0,11.0,68,0.00,,,0.00,119.000000,,2013-08-03 00:43:00,
2013-08-02 20:52:00,83.0,71.0,-100.00,SE,124,4.0,11.0,68,0.00,,,0.00,119.000000,,2013-08-03 00:52:00,
2013-08-02 21:03:00,83.0,71.0,-100.00,SE,124,4.0,11.0,68,0.00,,,0.00,119.000000,,2013-08-03 01:03:00,
2013-08-02 21:22:00,81.0,75.0,-100.00,ESE,123,3.0,9.0,82,0.00,,,0.00,4.000000,,2013-08-03 01:22:00,
2013-08-02 21:33:00,81.0,75.0,-100.00,ESE,123,3.0,9.0,82,0.00,,,0.00,4.000000,,2013-08-03 01:33:00,
2013-08-02 21:43:00,81.0,75.0,-100.00,ESE,123,3.0,9.0,82,0.00,,,0.00,4.000000,,2013-08-03 01:43:00,
2013-08-02 21:53:00,81.0,75.0,-100.00,ESE,123,3.0,9.0,82,0.00,,,0.00,4.000000,,2013-08-03 01:53:00,
2013-08-02 22:02:00,81.0,75.0,-100.00,ESE,123,3.0,9.0,82,0.00,,,0.00,4.000000,,2013-08-03 02:02:00,
2013-08-02 22:22:00,80.0,75.0,-100.00,ESE,117,2.0,7.0,86,0.00,,,0.00,0.000000,,2013-08-03 02:22:00,
2013-08-02 22:32:00,80.0,75.0,-100.00,ESE,117,2.0,7.0,86,0.00,,,0.00,0.000000,,2013-08-03 02:32:00,
2013-08-02 22:43:00,80.0,75.0,-100.00,ESE,117,2.0,7.0,86,0.00,,,0.00,0.000000,,2013-08-03 02:43:00,
2013-08-02 22:53:00,80.0,75.0,-100.00,ESE,117,2.0,7.0,86,0.00,,,0.00,0.000000,,2013-08-03 02:53:00,
2013-08-02 23:03:00,80.0,75.0,-100.00,ESE,117,2.0,7.0,86,0.00,,,0.00,0.000000,,2013-08-03 03:03:00,
2013-08-02 23:32:00,78.0,74.0,-100.00,SW,215,1.0,4.0,89,0.00,,,0.00,0.000000,,2013-08-03 03:32:00,
2013-08-02 23:43:00,78.0,74.0,-100.00,SW,215,1.0,4.0,89,0.00,,,0.00,0.000000,,2013-08-03 03:43:00,
2013-08-02 23:53:00,78.0,74.0,-100.00,SW,215,1.0,4.0,89,0.00,,,0.00,0.000000,,2013-08-03 03:53:00,